sensor_id;sensor_type;location;lat;lon;timestamp;P1;durP1;ratioP1;P2;durP2;ratioP2
63784;SDS011;49927;48.146;11.420;2022-10-15T00:01:16;7.35;;;2.08;;
63784;SDS011;49927;48.146;11.420;2022-10-15T00:03:42;3.63;;;1.88;;
63784;SDS011;49927;48.146;11.420;2022-10-15T00:06:09;5.47;;;2.15;;
63784;SDS011;49927;48.146;11.420;2022-10-15T00:08:35;3.67;;;1.60;;
63784;SDS011;49927;48.146;11.420;2022-10-15T00:11:02;2.95;;;1.88;;
63784;SDS011;49927;48.146;11.420;2022-10-15T00:13:29;1.58;;;1.42;;
63784;SDS011;49927;48.146;11.420;2022-10-15T00:15:54;4.15;;;1.70;;
63784;SDS011;49927;48.146;11.420;2022-10-15T00:18:21;4.32;;;1.85;;
63784;SDS011;49927;48.146;11.420;2022-10-15T00:20:47;4.07;;;2.13;;
63784;SDS011;49927;48.146;11.420;2022-10-15T00:23:12;3.15;;;2.00;;
63784;SDS011;49927;48.146;11.420;2022-10-15T00:25:38;6.40;;;1.45;;
63784;SDS011;49927;48.146;11.420;2022-10-15T00:28:03;3.95;;;1.40;;
63784;SDS011;49927;48.146;11.420;2022-10-15T00:30:29;7.72;;;2.30;;
63784;SDS011;49927;48.146;11.420;2022-10-15T00:32:54;11.95;;;4.78;;
63784;SDS011;49927;48.146;11.420;2022-10-15T00:35:21;7.45;;;2.80;;
63784;SDS011;49927;48.146;11.420;2022-10-15T00:37:47;4.50;;;1.48;;
63784;SDS011;49927;48.146;11.420;2022-10-15T00:40:12;3.85;;;1.50;;
63784;SDS011;49927;48.146;11.420;2022-10-15T00:42:38;3.15;;;1.63;;
63784;SDS011;49927;48.146;11.420;2022-10-15T00:45:03;7.00;;;1.88;;
63784;SDS011;49927;48.146;11.420;2022-10-15T00:47:32;10.95;;;3.50;;
63784;SDS011;49927;48.146;11.420;2022-10-15T00:50:00;4.22;;;1.98;;
63784;SDS011;49927;48.146;11.420;2022-10-15T00:52:32;4.00;;;1.90;;
63784;SDS011;49927;48.146;11.420;2022-10-15T00:55:02;5.20;;;1.70;;
63784;SDS011;49927;48.146;11.420;2022-10-15T00:57:30;5.20;;;1.60;;
63784;SDS011;49927;48.146;11.420;2022-10-15T00:59:57;2.78;;;1.50;;
63784;SDS011;49927;48.146;11.420;2022-10-15T01:02:24;2.83;;;1.65;;
63784;SDS011;49927;48.146;11.420;2022-10-15T01:04:50;2.50;;;1.45;;
63784;SDS011;49927;48.146;11.420;2022-10-15T01:07:15;3.08;;;1.50;;
63784;SDS011;49927;48.146;11.420;2022-10-15T01:09:42;2.90;;;1.48;;
63784;SDS011;49927;48.146;11.420;2022-10-15T01:12:09;3.08;;;1.50;;
63784;SDS011;49927;48.146;11.420;2022-10-15T01:14:38;3.00;;;1.60;;
63784;SDS011;49927;48.146;11.420;2022-10-15T01:17:11;3.38;;;1.50;;
63784;SDS011;49927;48.146;11.420;2022-10-15T01:19:48;3.25;;;1.88;;
63784;SDS011;49927;48.146;11.420;2022-10-15T01:22:28;5.55;;;1.70;;
63784;SDS011;49927;48.146;11.420;2022-10-15T01:25:09;1.90;;;1.13;;
63784;SDS011;49927;48.146;11.420;2022-10-15T01:27:40;3.03;;;1.40;;
63784;SDS011;49927;48.146;11.420;2022-10-15T01:30:19;3.92;;;1.45;;
63784;SDS011;49927;48.146;11.420;2022-10-15T01:32:47;7.32;;;1.88;;
63784;SDS011;49927;48.146;11.420;2022-10-15T01:35:20;4.85;;;1.58;;
63784;SDS011;49927;48.146;11.420;2022-10-15T01:37:51;3.13;;;1.50;;
63784;SDS011;49927;48.146;11.420;2022-10-15T01:40:19;2.40;;;1.10;;
63784;SDS011;49927;48.146;11.420;2022-10-15T01:42:47;2.25;;;1.17;;
63784;SDS011;49927;48.146;11.420;2022-10-15T01:45:16;2.85;;;1.45;;
63784;SDS011;49927;48.146;11.420;2022-10-15T01:47:47;2.17;;;1.17;;
63784;SDS011;49927;48.146;11.420;2022-10-15T01:50:14;2.63;;;1.20;;
63784;SDS011;49927;48.146;11.420;2022-10-15T01:52:41;1.45;;;1.27;;
63784;SDS011;49927;48.146;11.420;2022-10-15T01:55:09;1.25;;;1.15;;
63784;SDS011;49927;48.146;11.420;2022-10-15T01:57:36;3.67;;;1.23;;
63784;SDS011;49927;48.146;11.420;2022-10-15T02:00:03;5.93;;;1.50;;
63784;SDS011;49927;48.146;11.420;2022-10-15T02:02:31;1.92;;;1.30;;
63784;SDS011;49927;48.146;11.420;2022-10-15T02:04:56;3.40;;;1.45;;
63784;SDS011;49927;48.146;11.420;2022-10-15T02:07:24;5.55;;;1.50;;
63784;SDS011;49927;48.146;11.420;2022-10-15T02:09:56;1.85;;;1.33;;
63784;SDS011;49927;48.146;11.420;2022-10-15T02:12:26;3.47;;;1.38;;
63784;SDS011;49927;48.146;11.420;2022-10-15T02:14:57;5.78;;;1.50;;
63784;SDS011;49927;48.146;11.420;2022-10-15T02:17:26;2.92;;;1.13;;
63784;SDS011;49927;48.146;11.420;2022-10-15T02:19:59;5.03;;;1.30;;
63784;SDS011;49927;48.146;11.420;2022-10-15T02:22:31;5.43;;;1.45;;
63784;SDS011;49927;48.146;11.420;2022-10-15T02:25:01;1.70;;;1.17;;
63784;SDS011;49927;48.146;11.420;2022-10-15T02:27:28;3.28;;;1.35;;
63784;SDS011;49927;48.146;11.420;2022-10-15T02:29:55;1.35;;;0.98;;
63784;SDS011;49927;48.146;11.420;2022-10-15T02:32:21;3.17;;;1.20;;
63784;SDS011;49927;48.146;11.420;2022-10-15T02:34:50;1.67;;;1.13;;
63784;SDS011;49927;48.146;11.420;2022-10-15T02:37:16;2.55;;;0.95;;
63784;SDS011;49927;48.146;11.420;2022-10-15T02:39:44;2.13;;;0.82;;
63784;SDS011;49927;48.146;11.420;2022-10-15T02:42:09;1.42;;;1.00;;
63784;SDS011;49927;48.146;11.420;2022-10-15T02:44:35;1.40;;;0.60;;
63784;SDS011;49927;48.146;11.420;2022-10-15T02:47:01;7.40;;;1.35;;
63784;SDS011;49927;48.146;11.420;2022-10-15T02:49:26;0.77;;;0.73;;
63784;SDS011;49927;48.146;11.420;2022-10-15T02:51:53;1.33;;;0.90;;
63784;SDS011;49927;48.146;11.420;2022-10-15T02:54:19;2.90;;;0.80;;
63784;SDS011;49927;48.146;11.420;2022-10-15T02:56:44;3.25;;;0.75;;
63784;SDS011;49927;48.146;11.420;2022-10-15T02:59:10;0.85;;;0.60;;
63784;SDS011;49927;48.146;11.420;2022-10-15T03:01:35;2.47;;;0.90;;
63784;SDS011;49927;48.146;11.420;2022-10-15T03:04:01;2.47;;;0.80;;
63784;SDS011;49927;48.146;11.420;2022-10-15T03:06:26;0.85;;;0.60;;
63784;SDS011;49927;48.146;11.420;2022-10-15T03:08:53;2.92;;;0.90;;
63784;SDS011;49927;48.146;11.420;2022-10-15T03:11:18;0.73;;;0.50;;
63784;SDS011;49927;48.146;11.420;2022-10-15T03:13:44;2.00;;;0.70;;
63784;SDS011;49927;48.146;11.420;2022-10-15T03:16:10;1.73;;;0.65;;
63784;SDS011;49927;48.146;11.420;2022-10-15T03:18:36;0.50;;;0.43;;
63784;SDS011;49927;48.146;11.420;2022-10-15T03:21:02;0.50;;;0.50;;
63784;SDS011;49927;48.146;11.420;2022-10-15T03:23:28;3.85;;;0.70;;
63784;SDS011;49927;48.146;11.420;2022-10-15T03:25:55;2.05;;;1.10;;
63784;SDS011;49927;48.146;11.420;2022-10-15T03:28:20;0.85;;;0.80;;
63784;SDS011;49927;48.146;11.420;2022-10-15T03:30:46;0.73;;;0.50;;
63784;SDS011;49927;48.146;11.420;2022-10-15T03:33:11;0.38;;;0.38;;
63784;SDS011;49927;48.146;11.420;2022-10-15T03:35:37;2.08;;;0.88;;
63784;SDS011;49927;48.146;11.420;2022-10-15T03:38:03;0.98;;;0.70;;
63784;SDS011;49927;48.146;11.420;2022-10-15T03:40:28;4.82;;;0.65;;
63784;SDS011;49927;48.146;11.420;2022-10-15T03:42:55;1.10;;;0.50;;
63784;SDS011;49927;48.146;11.420;2022-10-15T03:45:21;0.98;;;0.90;;
63784;SDS011;49927;48.146;11.420;2022-10-15T03:47:47;0.82;;;0.65;;
63784;SDS011;49927;48.146;11.420;2022-10-15T03:50:12;2.53;;;0.57;;
63784;SDS011;49927;48.146;11.420;2022-10-15T03:52:38;0.88;;;0.60;;
63784;SDS011;49927;48.146;11.420;2022-10-15T03:55:04;1.77;;;0.43;;
63784;SDS011;49927;48.146;11.420;2022-10-15T03:57:30;0.85;;;0.40;;
63784;SDS011;49927;48.146;11.420;2022-10-15T03:59:57;0.80;;;0.70;;
63784;SDS011;49927;48.146;11.420;2022-10-15T04:02:23;0.50;;;0.47;;
63784;SDS011;49927;48.146;11.420;2022-10-15T04:04:50;0.45;;;0.45;;
63784;SDS011;49927;48.146;11.420;2022-10-15T04:07:15;0.95;;;0.50;;
63784;SDS011;49927;48.146;11.420;2022-10-15T04:09:41;1.40;;;0.40;;
63784;SDS011;49927;48.146;11.420;2022-10-15T04:12:06;2.03;;;0.40;;
63784;SDS011;49927;48.146;11.420;2022-10-15T04:14:32;0.47;;;0.47;;
63784;SDS011;49927;48.146;11.420;2022-10-15T04:16:59;5.15;;;2.38;;
63784;SDS011;49927;48.146;11.420;2022-10-15T04:19:24;1.95;;;0.52;;
63784;SDS011;49927;48.146;11.420;2022-10-15T04:21:49;3.28;;;0.50;;
63784;SDS011;49927;48.146;11.420;2022-10-15T04:24:15;2.08;;;0.73;;
63784;SDS011;49927;48.146;11.420;2022-10-15T04:26:40;1.88;;;0.40;;
63784;SDS011;49927;48.146;11.420;2022-10-15T04:29:06;4.35;;;0.50;;
63784;SDS011;49927;48.146;11.420;2022-10-15T04:31:31;0.43;;;0.40;;
63784;SDS011;49927;48.146;11.420;2022-10-15T04:33:58;1.17;;;0.60;;
63784;SDS011;49927;48.146;11.420;2022-10-15T04:36:24;3.45;;;0.60;;
63784;SDS011;49927;48.146;11.420;2022-10-15T04:38:49;1.13;;;0.30;;
63784;SDS011;49927;48.146;11.420;2022-10-15T04:41:15;0.43;;;0.43;;
63784;SDS011;49927;48.146;11.420;2022-10-15T04:43:40;4.57;;;0.60;;
63784;SDS011;49927;48.146;11.420;2022-10-15T04:46:06;0.32;;;0.30;;
63784;SDS011;49927;48.146;11.420;2022-10-15T04:48:33;0.40;;;0.40;;
63784;SDS011;49927;48.146;11.420;2022-10-15T04:51:03;1.55;;;0.35;;
63784;SDS011;49927;48.146;11.420;2022-10-15T04:53:29;0.80;;;0.40;;
63784;SDS011;49927;48.146;11.420;2022-10-15T04:55:58;1.45;;;0.55;;
63784;SDS011;49927;48.146;11.420;2022-10-15T04:58:24;0.57;;;0.47;;
63784;SDS011;49927;48.146;11.420;2022-10-15T05:00:49;0.45;;;0.35;;
63784;SDS011;49927;48.146;11.420;2022-10-15T05:03:15;2.47;;;0.57;;
63784;SDS011;49927;48.146;11.420;2022-10-15T05:05:40;0.77;;;0.60;;
63784;SDS011;49927;48.146;11.420;2022-10-15T05:08:07;0.55;;;0.52;;
63784;SDS011;49927;48.146;11.420;2022-10-15T05:10:33;0.70;;;0.40;;
63784;SDS011;49927;48.146;11.420;2022-10-15T05:12:58;1.15;;;0.68;;
63784;SDS011;49927;48.146;11.420;2022-10-15T05:15:24;1.05;;;0.43;;
63784;SDS011;49927;48.146;11.420;2022-10-15T05:17:50;0.93;;;0.63;;
63784;SDS011;49927;48.146;11.420;2022-10-15T05:20:15;0.52;;;0.52;;
63784;SDS011;49927;48.146;11.420;2022-10-15T05:22:41;0.75;;;0.60;;
63784;SDS011;49927;48.146;11.420;2022-10-15T05:25:08;2.80;;;0.65;;
63784;SDS011;49927;48.146;11.420;2022-10-15T05:27:33;0.70;;;0.30;;
63784;SDS011;49927;48.146;11.420;2022-10-15T05:29:59;0.73;;;0.50;;
63784;SDS011;49927;48.146;11.420;2022-10-15T05:32:24;3.55;;;0.93;;
63784;SDS011;49927;48.146;11.420;2022-10-15T05:34:50;1.45;;;0.40;;
63784;SDS011;49927;48.146;11.420;2022-10-15T05:37:15;2.08;;;0.60;;
63784;SDS011;49927;48.146;11.420;2022-10-15T05:39:41;1.00;;;0.68;;
63784;SDS011;49927;48.146;11.420;2022-10-15T05:42:09;1.08;;;0.52;;
63784;SDS011;49927;48.146;11.420;2022-10-15T05:44:34;3.33;;;0.55;;
63784;SDS011;49927;48.146;11.420;2022-10-15T05:47:00;0.70;;;0.50;;
63784;SDS011;49927;48.146;11.420;2022-10-15T05:49:25;1.15;;;0.55;;
63784;SDS011;49927;48.146;11.420;2022-10-15T05:51:50;0.68;;;0.68;;
63784;SDS011;49927;48.146;11.420;2022-10-15T05:54:16;2.28;;;0.93;;
63784;SDS011;49927;48.146;11.420;2022-10-15T05:56:41;1.08;;;0.65;;
63784;SDS011;49927;48.146;11.420;2022-10-15T05:59:08;0.38;;;0.38;;
63784;SDS011;49927;48.146;11.420;2022-10-15T06:01:34;1.50;;;0.70;;
63784;SDS011;49927;48.146;11.420;2022-10-15T06:03:59;3.15;;;0.60;;
63784;SDS011;49927;48.146;11.420;2022-10-15T06:06:25;0.43;;;0.43;;
63784;SDS011;49927;48.146;11.420;2022-10-15T06:08:51;0.77;;;0.77;;
63784;SDS011;49927;48.146;11.420;2022-10-15T06:11:17;1.35;;;0.45;;
63784;SDS011;49927;48.146;11.420;2022-10-15T06:13:43;2.65;;;0.55;;
63784;SDS011;49927;48.146;11.420;2022-10-15T06:16:10;6.53;;;3.35;;
63784;SDS011;49927;48.146;11.420;2022-10-15T06:18:36;0.82;;;0.80;;
63784;SDS011;49927;48.146;11.420;2022-10-15T06:21:02;0.82;;;0.63;;
63784;SDS011;49927;48.146;11.420;2022-10-15T06:23:28;1.00;;;0.60;;
63784;SDS011;49927;48.146;11.420;2022-10-15T06:25:54;0.90;;;0.90;;
63784;SDS011;49927;48.146;11.420;2022-10-15T06:28:19;0.57;;;0.40;;
63784;SDS011;49927;48.146;11.420;2022-10-15T06:30:45;0.73;;;0.47;;
63784;SDS011;49927;48.146;11.420;2022-10-15T06:33:11;0.50;;;0.40;;
63784;SDS011;49927;48.146;11.420;2022-10-15T06:35:37;0.73;;;0.50;;
63784;SDS011;49927;48.146;11.420;2022-10-15T06:38:03;1.15;;;0.43;;
63784;SDS011;49927;48.146;11.420;2022-10-15T06:40:29;0.60;;;0.52;;
63784;SDS011;49927;48.146;11.420;2022-10-15T06:42:54;0.30;;;0.30;;
63784;SDS011;49927;48.146;11.420;2022-10-15T06:45:20;1.25;;;0.60;;
63784;SDS011;49927;48.146;11.420;2022-10-15T06:47:45;0.60;;;0.60;;
63784;SDS011;49927;48.146;11.420;2022-10-15T06:50:12;1.33;;;0.95;;
63784;SDS011;49927;48.146;11.420;2022-10-15T06:52:38;1.17;;;0.70;;
63784;SDS011;49927;48.146;11.420;2022-10-15T06:55:03;1.92;;;0.80;;
63784;SDS011;49927;48.146;11.420;2022-10-15T06:57:29;2.35;;;0.93;;
63784;SDS011;49927;48.146;11.420;2022-10-15T06:59:55;4.28;;;0.75;;
63784;SDS011;49927;48.146;11.420;2022-10-15T07:02:20;0.65;;;0.65;;
63784;SDS011;49927;48.146;11.420;2022-10-15T07:04:46;1.23;;;0.60;;
63784;SDS011;49927;48.146;11.420;2022-10-15T07:07:13;0.45;;;0.35;;
63784;SDS011;49927;48.146;11.420;2022-10-15T07:09:39;2.78;;;0.60;;
63784;SDS011;49927;48.146;11.420;2022-10-15T07:12:05;1.55;;;0.52;;
63784;SDS011;49927;48.146;11.420;2022-10-15T07:14:30;0.38;;;0.38;;
63784;SDS011;49927;48.146;11.420;2022-10-15T07:16:56;1.80;;;0.55;;
63784;SDS011;49927;48.146;11.420;2022-10-15T07:19:21;3.15;;;0.40;;
63784;SDS011;49927;48.146;11.420;2022-10-15T07:21:47;0.65;;;0.52;;
63784;SDS011;49927;48.146;11.420;2022-10-15T07:24:14;1.70;;;0.63;;
63784;SDS011;49927;48.146;11.420;2022-10-15T07:26:39;0.45;;;0.43;;
63784;SDS011;49927;48.146;11.420;2022-10-15T07:29:05;0.50;;;0.50;;
63784;SDS011;49927;48.146;11.420;2022-10-15T07:31:30;2.70;;;0.80;;
63784;SDS011;49927;48.146;11.420;2022-10-15T07:33:56;0.63;;;0.50;;
63784;SDS011;49927;48.146;11.420;2022-10-15T07:36:21;0.65;;;0.60;;
63784;SDS011;49927;48.146;11.420;2022-10-15T07:38:47;1.02;;;0.65;;
63784;SDS011;49927;48.146;11.420;2022-10-15T07:41:14;1.35;;;0.73;;
63784;SDS011;49927;48.146;11.420;2022-10-15T07:43:39;0.68;;;0.68;;
63784;SDS011;49927;48.146;11.420;2022-10-15T07:46:05;3.22;;;0.68;;
63784;SDS011;49927;48.146;11.420;2022-10-15T07:48:31;0.85;;;0.70;;
63784;SDS011;49927;48.146;11.420;2022-10-15T07:50:57;1.33;;;1.00;;
63784;SDS011;49927;48.146;11.420;2022-10-15T07:53:23;3.63;;;1.95;;
63784;SDS011;49927;48.146;11.420;2022-10-15T07:55:49;3.33;;;1.00;;
63784;SDS011;49927;48.146;11.420;2022-10-15T07:58:16;1.42;;;1.10;;
63784;SDS011;49927;48.146;11.420;2022-10-15T08:00:41;1.73;;;0.90;;
63784;SDS011;49927;48.146;11.420;2022-10-15T08:03:07;1.20;;;0.82;;
63784;SDS011;49927;48.146;11.420;2022-10-15T08:05:32;0.80;;;0.80;;
63784;SDS011;49927;48.146;11.420;2022-10-15T08:07:58;0.98;;;0.77;;
63784;SDS011;49927;48.146;11.420;2022-10-15T08:10:23;0.40;;;0.40;;
63784;SDS011;49927;48.146;11.420;2022-10-15T08:12:49;0.73;;;0.65;;
63784;SDS011;49927;48.146;11.420;2022-10-15T08:15:16;4.35;;;2.28;;
63784;SDS011;49927;48.146;11.420;2022-10-15T08:17:41;2.30;;;0.40;;
63784;SDS011;49927;48.146;11.420;2022-10-15T08:20:07;0.77;;;0.52;;
63784;SDS011;49927;48.146;11.420;2022-10-15T08:22:33;0.50;;;0.32;;
63784;SDS011;49927;48.146;11.420;2022-10-15T08:24:59;1.48;;;0.52;;
63784;SDS011;49927;48.146;11.420;2022-10-15T08:27:25;0.70;;;0.70;;
63784;SDS011;49927;48.146;11.420;2022-10-15T08:29:50;0.35;;;0.35;;
63784;SDS011;49927;48.146;11.420;2022-10-15T08:32:17;1.60;;;0.40;;
63784;SDS011;49927;48.146;11.420;2022-10-15T08:34:42;0.93;;;0.70;;
63784;SDS011;49927;48.146;11.420;2022-10-15T08:37:08;0.50;;;0.50;;
63784;SDS011;49927;48.146;11.420;2022-10-15T08:39:34;1.15;;;1.02;;
63784;SDS011;49927;48.146;11.420;2022-10-15T08:42:00;1.55;;;0.90;;
63784;SDS011;49927;48.146;11.420;2022-10-15T08:44:27;0.63;;;0.50;;
63784;SDS011;49927;48.146;11.420;2022-10-15T08:46:55;0.50;;;0.50;;
63784;SDS011;49927;48.146;11.420;2022-10-15T08:49:29;0.40;;;0.40;;
63784;SDS011;49927;48.146;11.420;2022-10-15T08:52:01;0.77;;;0.70;;
63784;SDS011;49927;48.146;11.420;2022-10-15T08:54:31;2.50;;;0.50;;
63784;SDS011;49927;48.146;11.420;2022-10-15T08:57:01;0.60;;;0.52;;
63784;SDS011;49927;48.146;11.420;2022-10-15T08:59:34;0.85;;;0.70;;
63784;SDS011;49927;48.146;11.420;2022-10-15T09:02:03;0.60;;;0.60;;
63784;SDS011;49927;48.146;11.420;2022-10-15T09:04:40;2.90;;;0.70;;
63784;SDS011;49927;48.146;11.420;2022-10-15T09:07:13;0.60;;;0.60;;
63784;SDS011;49927;48.146;11.420;2022-10-15T09:09:42;0.60;;;0.60;;
63784;SDS011;49927;48.146;11.420;2022-10-15T09:12:16;1.27;;;0.80;;
63784;SDS011;49927;48.146;11.420;2022-10-15T09:14:50;4.40;;;0.73;;
63784;SDS011;49927;48.146;11.420;2022-10-15T09:17:18;0.98;;;0.80;;
63784;SDS011;49927;48.146;11.420;2022-10-15T09:19:46;1.75;;;0.80;;
63784;SDS011;49927;48.146;11.420;2022-10-15T09:22:14;2.28;;;1.30;;
63784;SDS011;49927;48.146;11.420;2022-10-15T09:24:42;2.13;;;1.23;;
63784;SDS011;49927;48.146;11.420;2022-10-15T09:27:08;1.83;;;1.13;;
63784;SDS011;49927;48.146;11.420;2022-10-15T09:29:38;0.85;;;0.75;;
63784;SDS011;49927;48.146;11.420;2022-10-15T09:32:11;1.15;;;0.90;;
63784;SDS011;49927;48.146;11.420;2022-10-15T09:34:40;0.73;;;0.60;;
63784;SDS011;49927;48.146;11.420;2022-10-15T09:37:13;1.08;;;0.52;;
63784;SDS011;49927;48.146;11.420;2022-10-15T09:39:45;2.72;;;0.55;;
63784;SDS011;49927;48.146;11.420;2022-10-15T09:42:21;2.80;;;0.85;;
63784;SDS011;49927;48.146;11.420;2022-10-15T09:44:51;1.23;;;1.13;;
63784;SDS011;49927;48.146;11.420;2022-10-15T09:47:22;1.00;;;0.80;;
63784;SDS011;49927;48.146;11.420;2022-10-15T09:49:49;1.27;;;0.90;;
63784;SDS011;49927;48.146;11.420;2022-10-15T09:52:17;1.80;;;1.30;;
63784;SDS011;49927;48.146;11.420;2022-10-15T09:54:48;1.55;;;0.70;;
63784;SDS011;49927;48.146;11.420;2022-10-15T09:57:18;4.95;;;0.98;;
63784;SDS011;49927;48.146;11.420;2022-10-15T09:59:52;0.63;;;0.55;;
63784;SDS011;49927;48.146;11.420;2022-10-15T10:02:18;1.00;;;0.45;;
63784;SDS011;49927;48.146;11.420;2022-10-15T10:04:45;1.20;;;0.57;;
63784;SDS011;49927;48.146;11.420;2022-10-15T10:07:26;2.15;;;0.75;;
63784;SDS011;49927;48.146;11.420;2022-10-15T10:09:54;2.78;;;0.57;;
63784;SDS011;49927;48.146;11.420;2022-10-15T10:12:20;1.33;;;0.50;;
63784;SDS011;49927;48.146;11.420;2022-10-15T10:14:52;3.60;;;0.55;;
63784;SDS011;49927;48.146;11.420;2022-10-15T10:17:19;0.60;;;0.60;;
63784;SDS011;49927;48.146;11.420;2022-10-15T10:20:01;1.30;;;0.80;;
63784;SDS011;49927;48.146;11.420;2022-10-15T10:22:30;0.88;;;0.57;;
63784;SDS011;49927;48.146;11.420;2022-10-15T10:25:09;2.50;;;0.50;;
63784;SDS011;49927;48.146;11.420;2022-10-15T10:27:48;1.20;;;0.50;;
63784;SDS011;49927;48.146;11.420;2022-10-15T10:30:14;1.70;;;0.95;;
63784;SDS011;49927;48.146;11.420;2022-10-15T10:32:39;3.35;;;0.77;;
63784;SDS011;49927;48.146;11.420;2022-10-15T10:35:05;1.48;;;0.77;;
63784;SDS011;49927;48.146;11.420;2022-10-15T10:37:45;0.95;;;0.57;;
63784;SDS011;49927;48.146;11.420;2022-10-15T10:40:18;4.45;;;0.73;;
63784;SDS011;49927;48.146;11.420;2022-10-15T10:42:47;0.93;;;0.50;;
63784;SDS011;49927;48.146;11.420;2022-10-15T10:45:14;1.13;;;0.65;;
63784;SDS011;49927;48.146;11.420;2022-10-15T10:47:41;2.13;;;0.75;;
63784;SDS011;49927;48.146;11.420;2022-10-15T10:50:10;1.33;;;0.40;;
63784;SDS011;49927;48.146;11.420;2022-10-15T10:52:52;1.90;;;0.52;;
63784;SDS011;49927;48.146;11.420;2022-10-15T10:55:18;0.63;;;0.60;;
63784;SDS011;49927;48.146;11.420;2022-10-15T10:57:47;1.65;;;0.70;;
63784;SDS011;49927;48.146;11.420;2022-10-15T11:00:16;3.95;;;1.05;;
63784;SDS011;49927;48.146;11.420;2022-10-15T11:02:44;3.55;;;0.77;;
63784;SDS011;49927;48.146;11.420;2022-10-15T11:05:10;0.80;;;0.70;;
63784;SDS011;49927;48.146;11.420;2022-10-15T11:07:36;1.83;;;0.60;;
63784;SDS011;49927;48.146;11.420;2022-10-15T11:10:07;1.10;;;0.80;;
63784;SDS011;49927;48.146;11.420;2022-10-15T11:12:39;1.63;;;0.60;;
63784;SDS011;49927;48.146;11.420;2022-10-15T11:18:00;2.30;;;0.90;;
63784;SDS011;49927;48.146;11.420;2022-10-15T11:20:30;1.73;;;0.82;;
63784;SDS011;49927;48.146;11.420;2022-10-15T11:23:02;2.28;;;0.60;;
63784;SDS011;49927;48.146;11.420;2022-10-15T11:25:37;0.88;;;0.70;;
63784;SDS011;49927;48.146;11.420;2022-10-15T11:28:11;0.93;;;0.85;;
63784;SDS011;49927;48.146;11.420;2022-10-15T11:30:47;1.30;;;0.73;;
63784;SDS011;49927;48.146;11.420;2022-10-15T11:33:33;0.95;;;0.68;;
63784;SDS011;49927;48.146;11.420;2022-10-15T11:36:13;3.17;;;0.70;;
63784;SDS011;49927;48.146;11.420;2022-10-15T11:38:48;1.00;;;0.90;;
63784;SDS011;49927;48.146;11.420;2022-10-15T11:41:31;1.17;;;0.68;;
63784;SDS011;49927;48.146;11.420;2022-10-15T11:46:57;0.60;;;0.60;;
63784;SDS011;49927;48.146;11.420;2022-10-15T11:49:35;1.63;;;1.05;;
63784;SDS011;49927;48.146;11.420;2022-10-15T11:52:12;3.70;;;0.88;;
63784;SDS011;49927;48.146;11.420;2022-10-15T11:54:51;2.35;;;0.50;;
63784;SDS011;49927;48.146;11.420;2022-10-15T11:57:23;0.77;;;0.73;;
63784;SDS011;49927;48.146;11.420;2022-10-15T11:59:50;2.67;;;0.60;;
63784;SDS011;49927;48.146;11.420;2022-10-15T12:02:20;1.52;;;0.70;;
63784;SDS011;49927;48.146;11.420;2022-10-15T12:04:48;1.58;;;0.77;;
63784;SDS011;49927;48.146;11.420;2022-10-15T12:07:17;2.15;;;0.45;;
63784;SDS011;49927;48.146;11.420;2022-10-15T12:09:45;2.00;;;0.80;;
63784;SDS011;49927;48.146;11.420;2022-10-15T12:12:16;2.58;;;0.52;;
63784;SDS011;49927;48.146;11.420;2022-10-15T12:14:48;0.75;;;0.40;;
63784;SDS011;49927;48.146;11.420;2022-10-15T12:17:19;3.70;;;0.75;;
63784;SDS011;49927;48.146;11.420;2022-10-15T12:19:47;3.47;;;0.60;;
63784;SDS011;49927;48.146;11.420;2022-10-15T12:22:29;1.48;;;0.70;;
63784;SDS011;49927;48.146;11.420;2022-10-15T12:24:56;1.98;;;0.60;;
63784;SDS011;49927;48.146;11.420;2022-10-15T12:27:23;0.70;;;0.50;;
63784;SDS011;49927;48.146;11.420;2022-10-15T12:30:09;2.45;;;0.60;;
63784;SDS011;49927;48.146;11.420;2022-10-15T12:32:45;1.38;;;0.52;;
63784;SDS011;49927;48.146;11.420;2022-10-15T12:35:19;0.60;;;0.47;;
63784;SDS011;49927;48.146;11.420;2022-10-15T12:37:47;0.55;;;0.55;;
63784;SDS011;49927;48.146;11.420;2022-10-15T12:40:22;0.60;;;0.60;;
63784;SDS011;49927;48.146;11.420;2022-10-15T12:42:50;1.65;;;0.50;;
63784;SDS011;49927;48.146;11.420;2022-10-15T12:45:19;0.55;;;0.55;;
63784;SDS011;49927;48.146;11.420;2022-10-15T12:47:46;0.50;;;0.50;;
63784;SDS011;49927;48.146;11.420;2022-10-15T12:50:37;0.80;;;0.65;;
63784;SDS011;49927;48.146;11.420;2022-10-15T12:53:03;0.70;;;0.60;;
63784;SDS011;49927;48.146;11.420;2022-10-15T12:55:33;0.65;;;0.50;;
63784;SDS011;49927;48.146;11.420;2022-10-15T12:58:00;3.35;;;1.23;;
63784;SDS011;49927;48.146;11.420;2022-10-15T13:00:32;1.92;;;1.33;;
63784;SDS011;49927;48.146;11.420;2022-10-15T13:05:55;1.30;;;1.00;;
63784;SDS011;49927;48.146;11.420;2022-10-15T13:08:41;1.75;;;1.35;;
63784;SDS011;49927;48.146;11.420;2022-10-15T13:11:11;2.08;;;1.25;;
63784;SDS011;49927;48.146;11.420;2022-10-15T13:16:10;1.00;;;0.90;;
63784;SDS011;49927;48.146;11.420;2022-10-15T13:18:37;2.80;;;1.42;;
63784;SDS011;49927;48.146;11.420;2022-10-15T13:21:04;1.05;;;0.98;;
63784;SDS011;49927;48.146;11.420;2022-10-15T13:23:30;1.05;;;1.00;;
63784;SDS011;49927;48.146;11.420;2022-10-15T13:26:09;3.30;;;1.40;;
63784;SDS011;49927;48.146;11.420;2022-10-15T13:28:38;1.45;;;0.77;;
63784;SDS011;49927;48.146;11.420;2022-10-15T13:31:04;1.20;;;1.00;;
63784;SDS011;49927;48.146;11.420;2022-10-15T13:33:32;2.83;;;1.10;;
63784;SDS011;49927;48.146;11.420;2022-10-15T13:36:03;2.65;;;0.70;;
63784;SDS011;49927;48.146;11.420;2022-10-15T13:38:29;2.90;;;0.80;;
63784;SDS011;49927;48.146;11.420;2022-10-15T13:40:55;1.35;;;1.00;;
63784;SDS011;49927;48.146;11.420;2022-10-15T13:43:21;0.50;;;0.50;;
63784;SDS011;49927;48.146;11.420;2022-10-15T13:45:48;1.00;;;0.90;;
63784;SDS011;49927;48.146;11.420;2022-10-15T13:48:18;3.15;;;1.10;;
63784;SDS011;49927;48.146;11.420;2022-10-15T13:50:46;1.17;;;1.08;;
63784;SDS011;49927;48.146;11.420;2022-10-15T13:53:20;2.13;;;1.00;;
63784;SDS011;49927;48.146;11.420;2022-10-15T13:55:48;3.70;;;1.08;;
63784;SDS011;49927;48.146;11.420;2022-10-15T13:58:16;1.17;;;0.95;;
63784;SDS011;49927;48.146;11.420;2022-10-15T14:00:47;2.47;;;0.88;;
63784;SDS011;49927;48.146;11.420;2022-10-15T14:03:17;2.33;;;1.20;;
63784;SDS011;49927;48.146;11.420;2022-10-15T14:05:44;1.60;;;0.70;;
63784;SDS011;49927;48.146;11.420;2022-10-15T14:08:15;1.42;;;0.85;;
63784;SDS011;49927;48.146;11.420;2022-10-15T14:10:42;1.65;;;0.93;;
63784;SDS011;49927;48.146;11.420;2022-10-15T14:13:07;2.38;;;0.70;;
63784;SDS011;49927;48.146;11.420;2022-10-15T14:15:40;1.30;;;0.75;;
63784;SDS011;49927;48.146;11.420;2022-10-15T14:18:07;1.42;;;0.90;;
63784;SDS011;49927;48.146;11.420;2022-10-15T14:20:32;1.95;;;0.63;;
63784;SDS011;49927;48.146;11.420;2022-10-15T14:23:00;4.22;;;0.60;;
63784;SDS011;49927;48.146;11.420;2022-10-15T14:25:25;2.72;;;0.88;;
63784;SDS011;49927;48.146;11.420;2022-10-15T14:27:51;0.88;;;0.82;;
63784;SDS011;49927;48.146;11.420;2022-10-15T14:30:19;0.82;;;0.80;;
63784;SDS011;49927;48.146;11.420;2022-10-15T14:32:47;6.32;;;1.42;;
63784;SDS011;49927;48.146;11.420;2022-10-15T14:35:20;3.30;;;1.17;;
63784;SDS011;49927;48.146;11.420;2022-10-15T14:37:57;5.97;;;1.10;;
63784;SDS011;49927;48.146;11.420;2022-10-15T14:40:24;1.00;;;0.90;;
63784;SDS011;49927;48.146;11.420;2022-10-15T14:42:59;1.13;;;0.90;;
63784;SDS011;49927;48.146;11.420;2022-10-15T14:45:27;2.33;;;0.90;;
63784;SDS011;49927;48.146;11.420;2022-10-15T14:47:54;2.85;;;1.00;;
63784;SDS011;49927;48.146;11.420;2022-10-15T14:50:22;1.20;;;1.10;;